Time;durP1;ratioP1;P1;durP2;ratioP2;P2;SDS_P1;SDS_P2;PMS_P1;PMS_P2;Temp;Humidity;BMP_temperature;BMP_pressure;BME280_temperature;BME280_humidity;BME280_pressure;Samples;Min_cycle;Max_cycle;Signal;HPM_P1;HPM_P2
2024/01/20 00:00:18;;;;;;;38.67;15.77;;;;;;;-2.08;100.00;102583.72;5070329;28;20039;-79
2024/01/20 00:02:44;;;;;;;30.67;14.75;;;;;;;-2.05;100.00;102575.75;5069999;28;20149;-79
2024/01/20 00:05:09;;;;;;;36.28;17.48;;;;;;;-2.03;100.00;102582.59;5070095;28;20032;-79
2024/01/20 00:07:35;;;;;;;37.00;16.13;;;;;;;-2.02;100.00;102575.59;5070038;28;20033;-79
2024/01/20 00:10:01;;;;;;;31.98;15.23;;;;;;;-2.01;100.00;102577.31;5068452;28;20090;-78
2024/01/20 00:12:26;;;;;;;41.70;15.13;;;;;;;-1.97;100.00;102578.84;5070000;28;20048;-78
2024/01/20 00:14:52;;;;;;;35.28;15.25;;;;;;;-1.95;100.00;102576.16;5069934;28;20062;-79
2024/01/20 00:17:17;;;;;;;32.13;13.30;;;;;;;-1.90;100.00;102590.72;5070064;28;20024;-79
2024/01/20 00:19:42;;;;;;;31.27;15.07;;;;;;;-1.91;100.00;102586.41;5052026;28;20029;-79
2024/01/20 00:22:08;;;;;;;42.28;15.50;;;;;;;-1.92;100.00;102587.31;5069986;28;20036;-79
2024/01/20 00:24:33;;;;;;;34.30;15.70;;;;;;;-1.89;100.00;102591.56;5069653;28;20115;-79
2024/01/20 00:26:59;;;;;;;31.02;13.23;;;;;;;-1.92;100.00;102584.69;5069256;28;20032;-78
2024/01/20 00:29:24;;;;;;;34.92;15.57;;;;;;;-1.92;100.00;102591.69;5069608;28;20072;-79
2024/01/20 00:31:49;;;;;;;42.97;18.05;;;;;;;-1.88;100.00;102591.50;5068578;28;20111;-78
2024/01/20 00:34:15;;;;;;;30.45;15.50;;;;;;;-1.83;100.00;102597.34;5069846;28;20028;-79
2024/01/20 00:36:40;;;;;;;30.48;13.82;;;;;;;-1.83;100.00;102594.75;5069849;28;20025;-79
2024/01/20 00:39:05;;;;;;;38.72;15.75;;;;;;;-1.82;100.00;102593.81;5068495;28;20441;-78
2024/01/20 00:41:31;;;;;;;32.75;15.95;;;;;;;-1.80;100.00;102585.91;5069597;28;20132;-79
2024/01/20 00:43:57;;;;;;;31.10;13.15;;;;;;;-1.89;100.00;102566.25;5069757;28;20141;-78
2024/01/20 00:46:22;;;;;;;33.40;14.13;;;;;;;-1.86;100.00;102580.94;5069265;28;20107;-78
2024/01/20 00:48:48;;;;;;;30.48;15.30;;;;;;;-1.96;100.00;102564.88;5067819;28;20139;-78
2024/01/20 00:51:13;;;;;;;39.35;14.63;;;;;;;-1.87;100.00;102577.47;5067999;28;20036;-78
2024/01/20 00:53:38;;;;;;;34.88;15.90;;;;;;;-1.91;100.00;102578.56;5068252;28;20052;-78
2024/01/20 00:56:04;;;;;;;34.53;16.30;;;;;;;-1.92;100.00;102576.00;5069584;28;20032;-78
2024/01/20 00:58:29;;;;;;;32.70;14.05;;;;;;;-1.92;100.00;102578.63;5069532;28;20479;-79
2024/01/20 01:00:55;;;;;;;33.90;14.73;;;;;;;-1.94;100.00;102572.63;5069375;28;20476;-79
2024/01/20 01:03:20;;;;;;;31.17;13.13;;;;;;;-1.96;100.00;102577.09;5069326;28;20871;-78
2024/01/20 01:05:45;;;;;;;31.17;14.10;;;;;;;-1.98;100.00;102579.78;5073135;28;20032;-79
2024/01/20 01:08:11;;;;;;;29.88;12.50;;;;;;;-1.99;100.00;102572.84;5073186;28;20032;-79
2024/01/20 01:10:36;;;;;;;27.40;11.52;;;;;;;-1.99;100.00;102584.16;5071807;28;20066;-79
2024/01/20 01:13:02;;;;;;;30.73;13.55;;;;;;;-2.01;100.00;102582.53;5073083;28;20115;-79
2024/01/20 01:15:29;;;;;;;37.47;13.90;;;;;;;-2.02;100.00;102576.47;5071848;28;20142;-78
2024/01/20 01:17:55;;;;;;;30.85;14.57;;;;;;;-2.14;100.00;102563.13;5073130;28;20476;-79
2024/01/20 01:20:20;;;;;;;31.48;12.23;;;;;;;-2.04;100.00;102580.91;5072984;28;20032;-79
2024/01/20 01:22:46;;;;;;;33.10;14.10;;;;;;;-2.09;100.00;102569.81;5071715;28;20047;-78
2024/01/20 01:25:11;;;;;;;29.33;13.93;;;;;;;-2.10;100.00;102564.66;5071647;28;20028;-78
2024/01/20 01:27:36;;;;;;;31.85;15.15;;;;;;;-2.05;100.00;102578.34;5072915;28;20465;-78
2024/01/20 01:30:02;;;;;;;32.83;14.98;;;;;;;-2.03;100.00;102581.75;5072951;28;20062;-78
2024/01/20 01:32:27;;;;;;;31.85;12.05;;;;;;;-2.06;100.00;102569.66;5071527;28;20373;-77
2024/01/20 01:34:53;;;;;;;34.90;16.08;;;;;;;-2.01;100.00;102590.38;5072750;28;20365;-78
2024/01/20 01:37:18;;;;;;;31.85;15.77;;;;;;;-2.06;100.00;102581.91;5072775;28;20354;-78
2024/01/20 01:39:43;;;;;;;30.17;13.63;;;;;;;-1.98;100.00;102591.06;5072623;28;20029;-78
2024/01/20 01:42:09;;;;;;;31.13;12.52;;;;;;;-1.96;100.00;102600.63;5072775;28;20039;-79
2024/01/20 01:44:35;;;;;;;33.78;16.30;;;;;;;-1.97;100.00;102597.13;5072592;28;20032;-78
2024/01/20 01:47:00;;;;;;;41.63;16.02;;;;;;;-2.02;100.00;102597.38;5072567;28;20073;-78
2024/01/20 01:49:26;;;;;;;32.80;12.35;;;;;;;-2.05;100.00;102602.72;5072455;28;20438;-78
2024/01/20 01:51:52;;;;;;;32.55;14.10;;;;;;;-2.02;100.00;102609.56;5072629;28;20036;-78
2024/01/20 01:54:19;;;;;;;37.53;15.68;;;;;;;-2.02;100.00;102610.44;5072309;28;20025;-78
2024/01/20 01:56:47;;;;;;;31.25;15.40;;;;;;;-2.03;100.00;102613.13;5062566;28;20115;-78
2024/01/20 01:59:14;;;;;;;37.17;14.70;;;;;;;-2.09;100.00;102601.19;5072353;28;20036;-78
2024/01/20 02:01:40;;;;;;;35.45;15.85;;;;;;;-2.07;100.00;102607.19;5072084;28;20032;-77
2024/01/20 02:04:05;;;;;;;30.33;13.95;;;;;;;-2.01;100.00;102624.38;5072326;28;20094;-78
2024/01/20 02:06:31;;;;;;;26.95;11.93;;;;;;;-2.04;100.00;102619.28;5072013;28;20024;-78
2024/01/20 02:08:57;;;;;;;34.75;15.57;;;;;;;-2.01;100.00;102619.97;5071931;28;20507;-78
2024/01/20 02:11:23;;;;;;;37.15;17.13;;;;;;;-2.07;100.00;102619.41;5070657;28;20109;-78
2024/01/20 02:13:49;;;;;;;33.80;12.60;;;;;;;-2.07;100.00;102627.25;5071810;28;20090;-78
2024/01/20 02:16:15;;;;;;;31.05;13.45;;;;;;;-2.11;100.00;102626.53;5071549;28;20036;-77
2024/01/20 02:18:40;;;;;;;32.63;14.30;;;;;;;-2.13;100.00;102630.16;5071912;28;20021;-78
2024/01/20 02:21:05;;;;;;;36.03;12.85;;;;;;;-2.13;100.00;102630.16;5072128;28;20035;-78
2024/01/20 02:23:38;;;;;;;33.97;15.10;;;;;;;-2.14;100.00;102634.53;5071928;28;20031;-78
2024/01/20 02:26:04;;;;;;;32.13;12.98;;;;;;;-2.16;100.00;102625.06;5071751;28;20164;-77
2024/01/20 02:28:29;;;;;;;30.33;14.43;;;;;;;-2.10;100.00;102633.47;5071537;28;20076;-77
2024/01/20 02:30:54;;;;;;;34.05;15.27;;;;;;;-2.12;100.00;102634.44;5071828;28;20119;-78
2024/01/20 02:33:20;;;;;;;31.60;13.43;;;;;;;-2.12;100.00;102640.53;5071690;28;20471;-78
2024/01/20 02:35:45;;;;;;;33.50;13.48;;;;;;;-2.11;100.00;102641.38;5071840;28;20384;-78
2024/01/20 02:38:10;;;;;;;31.33;14.48;;;;;;;-2.06;100.00;102640.25;5071503;28;20036;-78
2024/01/20 02:40:36;;;;;;;33.40;13.18;;;;;;;-2.03;100.00;102640.09;5071647;28;20487;-78
2024/01/20 02:43:01;;;;;;;26.83;12.65;;;;;;;-2.04;100.00;102643.66;5071544;28;20179;-78
2024/01/20 02:45:27;;;;;;;31.15;12.95;;;;;;;-2.06;100.00;102631.56;5071452;28;20105;-77
2024/01/20 02:47:54;;;;;;;34.80;15.43;;;;;;;-2.11;100.00;102620.47;5071425;28;20047;-78
2024/01/20 02:50:19;;;;;;;28.77;13.55;;;;;;;-2.12;100.00;102629.22;5056481;28;20533;-77
2024/01/20 02:52:45;;;;;;;27.15;12.60;;;;;;;-2.17;100.00;102628.56;5071341;28;20056;-78
2024/01/20 02:55:10;;;;;;;29.67;11.98;;;;;;;-2.20;100.00;102629.59;5071229;28;20024;-78
2024/01/20 02:57:36;;;;;;;33.42;13.85;;;;;;;-2.18;100.00;102629.50;5069737;28;20499;-78
2024/01/20 03:00:01;;;;;;;32.75;14.23;;;;;;;-2.21;100.00;102626.09;5071114;28;20036;-78
2024/01/20 03:02:26;;;;;;;31.20;13.48;;;;;;;-2.21;100.00;102620.88;5071319;28;20021;-78
2024/01/20 03:04:52;;;;;;;33.17;14.88;;;;;;;-2.25;100.00;102621.97;5071112;28;20020;-78
2024/01/20 03:07:17;;;;;;;32.30;14.18;;;;;;;-2.27;100.00;102630.78;5070952;28;20070;-78
2024/01/20 03:09:43;;;;;;;33.10;16.30;;;;;;;-2.36;100.00;102620.72;5070843;28;20052;-77
2024/01/20 03:12:08;;;;;;;34.60;13.05;;;;;;;-2.33;100.00;102636.25;5070938;28;20128;-77
2024/01/20 03:14:34;;;;;;;25.92;11.48;;;;;;;-2.37;100.00;102639.94;5069447;28;20044;-78
2024/01/20 03:16:59;;;;;;;37.17;14.10;;;;;;;-2.36;100.00;102647.69;5069621;28;20029;-79
2024/01/20 03:19:25;;;;;;;31.35;13.02;;;;;;;-2.37;100.00;102645.19;5052963;28;20035;-78
2024/01/20 03:21:51;;;;;;;33.90;13.95;;;;;;;-2.44;100.00;102640.22;5070674;28;20136;-78
2024/01/20 03:24:19;;;;;;;29.63;12.02;;;;;;;-2.39;100.00;102653.06;5070602;28;20107;-77
2024/01/20 03:26:47;;;;;;;33.45;16.20;;;;;;;-2.37;100.00;102653.84;5070486;28;20373;-78
2024/01/20 03:29:12;;;;;;;34.58;14.35;;;;;;;-2.29;100.00;102654.34;5069247;28;20047;-77
2024/01/20 03:31:38;;;;;;;29.60;13.27;;;;;;;-2.23;100.00;102658.44;5070452;28;20036;-78
2024/01/20 03:34:03;;;;;;;34.00;13.85;;;;;;;-2.16;100.00;102653.81;5070357;28;20035;-77
2024/01/20 03:36:28;;;;;;;28.80;13.85;;;;;;;-2.10;100.00;102645.69;5070507;28;20040;-78
2024/01/20 03:38:54;;;;;;;27.55;13.15;;;;;;;-2.08;100.00;102649.91;5069088;28;20052;-78
2024/01/20 03:41:19;;;;;;;25.73;12.10;;;;;;;-2.03;100.00;102657.56;5070380;28;20038;-77
2024/01/20 03:43:44;;;;;;;30.20;12.57;;;;;;;-2.00;100.00;102654.81;5068938;28;20503;-78
2024/01/20 03:46:10;;;;;;;28.67;11.82;;;;;;;-1.98;100.00;102659.03;5070437;28;20388;-78
2024/01/20 03:48:35;;;;;;;32.67;11.77;;;;;;;-1.95;100.00;102647.59;5070126;28;20106;-77
2024/01/20 03:51:02;;;;;;;26.17;12.88;;;;;;;-1.90;100.00;102658.69;5070214;28;20113;-78
2024/01/20 03:53:28;;;;;;;28.77;13.30;;;;;;;-1.91;100.00;102664.84;5070270;28;20036;-77
2024/01/20 03:55:53;;;;;;;26.23;11.02;;;;;;;-1.93;100.00;102664.06;5069948;28;20567;-77
2024/01/20 03:58:18;;;;;;;22.27;11.73;;;;;;;-1.91;100.00;102663.97;5070045;28;20032;-78
2024/01/20 04:00:44;;;;;;;30.58;11.63;;;;;;;-1.91;100.00;102658.75;5069970;28;20032;-77
2024/01/20 04:03:09;;;;;;;30.60;10.95;;;;;;;-2.05;100.00;102638.47;5070073;28;20067;-77
2024/01/20 04:05:35;;;;;;;29.63;13.45;;;;;;;-1.96;100.00;102651.16;5070032;28;20025;-77
2024/01/20 04:08:00;;;;;;;29.33;14.15;;;;;;;-1.93;100.00;102647.53;5069661;28;20119;-77
2024/01/20 04:10:25;;;;;;;28.08;13.65;;;;;;;-1.96;100.00;102647.69;5069912;28;20039;-77
2024/01/20 04:12:51;;;;;;;40.30;16.10;;;;;;;-1.99;100.00;102649.53;5069922;28;20119;-77
2024/01/20 04:15:16;;;;;;;32.35;12.93;;;;;;;-2.01;100.00;102655.75;5069996;28;20037;-77
2024/01/20 04:17:42;;;;;;;29.13;12.68;;;;;;;-2.03;100.00;102658.41;5069742;28;20383;-77
2024/01/20 04:20:08;;;;;;;36.13;14.57;;;;;;;-2.01;100.00;102660.97;5069670;28;20090;-77
2024/01/20 04:22:33;;;;;;;25.17;12.55;;;;;;;-2.02;100.00;102657.50;5069686;28;20036;-78
2024/01/20 04:24:58;;;;;;;28.80;10.82;;;;;;;-1.98;100.00;102669.50;5069884;28;20020;-78
2024/01/20 04:27:24;;;;;;;32.38;15.40;;;;;;;-1.98;100.00;102661.66;5069558;28;20093;-77
2024/01/20 04:29:49;;;;;;;29.23;12.15;;;;;;;-2.01;100.00;102672.25;5069474;28;20145;-77
2024/01/20 04:32:14;;;;;;;30.02;12.57;;;;;;;-2.00;100.00;102665.25;5069612;28;20541;-77
2024/01/20 04:34:40;;;;;;;31.52;12.02;;;;;;;-2.05;100.00;102675.91;5069485;28;20433;-77
2024/01/20 04:37:06;;;;;;;27.73;12.82;;;;;;;-2.08;100.00;102672.59;5069699;28;20040;-77
2024/01/20 04:39:31;;;;;;;30.15;12.48;;;;;;;-2.09;100.00;102676.16;5069051;28;20060;-77
2024/01/20 04:41:56;;;;;;;23.90;11.00;;;;;;;-2.09;100.00;102678.78;5068351;28;20060;-77
2024/01/20 04:44:22;;;;;;;30.08;14.23;;;;;;;-2.07;100.00;102682.13;5068206;28;20490;-77
2024/01/20 04:46:47;;;;;;;28.60;12.32;;;;;;;-2.01;100.00;102689.72;5069666;28;20471;-77
2024/01/20 04:49:13;;;;;;;32.78;14.90;;;;;;;-1.99;100.00;102685.28;5069427;28;20064;-77
2024/01/20 04:51:38;;;;;;;27.88;12.85;;;;;;;-1.97;100.00;102688.66;5069497;28;20028;-77
2024/01/20 04:54:04;;;;;;;26.02;11.05;;;;;;;-1.95;100.00;102689.44;5069334;28;20028;-77
2024/01/20 04:56:29;;;;;;;29.45;13.75;;;;;;;-1.99;100.00;102683.50;5068002;28;20032;-77
2024/01/20 04:58:55;;;;;;;36.25;13.32;;;;;;;-1.96;100.00;102695.59;5068017;28;20098;-78
2024/01/20 05:01:21;;;;;;;28.77;13.40;;;;;;;-1.95;100.00;102692.03;5069377;28;20075;-77
2024/01/20 05:03:46;;;;;;;25.45;11.20;;;;;;;-1.97;100.00;102693.88;5069440;28;20058;-77
2024/01/20 05:06:11;;;;;;;29.13;12.85;;;;;;;-1.96;100.00;102686.91;5069278;28;20174;-77
2024/01/20 05:08:37;;;;;;;26.98;11.38;;;;;;;-1.99;100.00;102685.28;5069143;28;20052;-77
2024/01/20 05:11:03;;;;;;;30.40;13.77;;;;;;;-2.00;100.00;102692.25;5069131;28;20039;-77
2024/01/20 05:13:28;;;;;;;30.45;10.75;;;;;;;-1.98;100.00;102689.56;5067871;28;20127;-77
2024/01/20 05:15:54;;;;;;;28.50;14.45;;;;;;;-2.01;100.00;102682.72;5069243;28;20114;-78
2024/01/20 05:18:20;;;;;;;28.20;12.32;;;;;;;-2.02;100.00;102688.88;5069261;28;20154;-77
2024/01/20 05:20:45;;;;;;;28.48;12.15;;;;;;;-2.00;100.00;102694.88;5068081;28;20395;-77
2024/01/20 05:23:11;;;;;;;28.85;11.55;;;;;;;-2.03;100.00;102700.22;5069172;28;20549;-77
2024/01/20 05:25:37;;;;;;;28.30;13.00;;;;;;;-2.02;100.00;102690.63;5069137;28;20052;-77
2024/01/20 05:28:02;;;;;;;25.05;10.70;;;;;;;-1.96;100.00;102713.91;5068841;28;20056;-77
2024/01/20 05:30:28;;;;;;;29.60;11.95;;;;;;;-1.94;100.00;102717.25;5069183;28;20040;-77
2024/01/20 05:32:53;;;;;;;28.15;15.05;;;;;;;-1.95;100.00;102717.34;5067618;28;20388;-77
2024/01/20 05:35:18;;;;;;;30.50;14.07;;;;;;;-1.97;100.00;102725.25;5069134;28;20088;-77
2024/01/20 05:37:44;;;;;;;28.75;10.15;;;;;;;-2.02;100.00;102709.78;5069034;28;20017;-77
2024/01/20 05:40:10;;;;;;;30.80;11.63;;;;;;;-2.07;100.00;102709.16;5068985;28;20028;-77
2024/01/20 05:42:36;;;;;;;26.77;12.43;;;;;;;-2.00;100.00;102714.94;5069011;28;20028;-77
2024/01/20 05:45:01;;;;;;;27.67;11.10;;;;;;;-2.02;100.00;102725.47;5068906;28;20111;-77
2024/01/20 05:47:26;;;;;;;28.75;11.60;;;;;;;-2.03;100.00;102722.91;5067579;28;20471;-77
2024/01/20 05:49:52;;;;;;;27.02;12.48;;;;;;;-2.08;100.00;102717.03;5068960;28;20036;-77
2024/01/20 05:52:17;;;;;;;24.83;11.82;;;;;;;-2.07;100.00;102726.56;5069901;28;20158;-77
2024/01/20 05:54:42;;;;;;;30.30;12.88;;;;;;;-2.06;100.00;102723.91;5072297;28;20047;-77
2024/01/20 05:57:08;;;;;;;28.70;11.68;;;;;;;-2.16;100.00;102708.69;5072234;28;20060;-77
2024/01/20 05:59:33;;;;;;;23.70;11.90;;;;;;;-2.10;100.00;102721.50;5071144;28;20104;-77
2024/01/20 06:01:59;;;;;;;23.67;8.43;;;;;;;-2.12;100.00;102720.69;5072069;28;20074;-77
2024/01/20 06:04:24;;;;;;;24.15;11.25;;;;;;;-2.11;100.00;102728.50;5070953;28;20063;-77
2024/01/20 06:06:50;;;;;;;27.02;10.45;;;;;;;-2.13;100.00;102727.69;5072103;28;20495;-77
2024/01/20 06:09:15;;;;;;;31.33;12.95;;;;;;;-2.15;100.00;102718.22;5070741;28;20416;-77
2024/01/20 06:11:41;;;;;;;25.75;13.30;;;;;;;-2.20;100.00;102723.69;5071795;28;20029;-77
2024/01/20 06:14:07;;;;;;;31.88;13.80;;;;;;;-2.16;100.00;102733.06;5072196;28;20047;-77
2024/01/20 06:16:38;;;;;;;26.52;10.68;;;;;;;-2.15;100.00;102746.97;5071945;28;20063;-77
2024/01/20 06:19:05;;;;;;;30.42;13.63;;;;;;;-2.15;100.00;102745.22;5072040;28;20033;-77
2024/01/20 06:21:31;;;;;;;28.98;11.63;;;;;;;-2.13;100.00;102743.38;5071589;28;20039;-77
2024/01/20 06:23:56;;;;;;;37.33;14.43;;;;;;;-2.13;100.00;102738.16;5071817;28;20484;-77
2024/01/20 06:26:21;;;;;;;27.63;12.55;;;;;;;-2.21;100.00;102735.88;5070366;28;20384;-77
2024/01/20 06:28:47;;;;;;;29.17;11.90;;;;;;;-2.21;100.00;102748.94;5053404;28;20467;-77
2024/01/20 06:31:26;;;;;;;33.30;13.07;;;;;;;-2.25;100.00;102747.41;5071603;28;20139;-77
2024/01/20 06:33:52;;;;;;;34.42;12.88;;;;;;;-2.26;100.00;102750.06;5070104;28;20376;-77
2024/01/20 06:36:21;;;;;;;23.77;10.38;;;;;;;-2.31;100.00;102749.41;5071551;28;20191;-77
2024/01/20 06:38:47;;;;;;;26.40;11.85;;;;;;;-2.32;100.00;102747.72;5071643;28;20033;-77
2024/01/20 06:41:12;;;;;;;24.25;10.07;;;;;;;-2.26;100.00;102750.06;5070175;28;20120;-78
2024/01/20 06:43:38;;;;;;;24.77;10.93;;;;;;;-2.35;100.00;102735.63;5071417;28;20124;-77
2024/01/20 06:46:03;;;;;;;27.15;12.93;;;;;;;-2.31;100.00;102750.25;5071467;28;20075;-77
2024/01/20 06:48:32;;;;;;;26.50;11.00;;;;;;;-2.29;100.00;102758.03;5071446;28;20032;-77
2024/01/20 06:50:59;;;;;;;25.92;10.98;;;;;;;-2.31;100.00;102755.47;5069904;28;20400;-76
2024/01/20 06:53:28;;;;;;;28.95;11.88;;;;;;;-2.29;100.00;102763.28;5071413;28;20537;-77
2024/01/20 06:55:54;;;;;;;26.77;11.48;;;;;;;-2.29;100.00;102758.88;5071096;28;20138;-76
2024/01/20 06:58:19;;;;;;;27.45;12.52;;;;;;;-2.37;100.00;102754.91;5071207;28;20036;-77
2024/01/20 07:00:45;;;;;;;27.75;12.15;;;;;;;-2.25;100.00;102767.47;5070775;28;20363;-76
2024/01/20 07:03:10;;;;;;;26.67;11.55;;;;;;;-2.27;100.00;102762.28;5070962;28;20107;-77
2024/01/20 07:05:36;;;;;;;31.58;11.80;;;;;;;-2.15;100.00;102776.56;5070705;28;20028;-76
2024/01/20 07:08:02;;;;;;;26.65;11.43;;;;;;;-2.16;100.00;102771.44;5070665;28;20039;-76
2024/01/20 07:10:27;;;;;;;30.10;11.75;;;;;;;-2.16;100.00;102774.03;5070616;28;20028;-76
2024/01/20 07:12:53;;;;;;;26.02;12.90;;;;;;;-2.18;100.00;102773.25;5071056;28;20021;-76
2024/01/20 07:15:18;;;;;;;32.00;12.45;;;;;;;-2.19;100.00;102775.03;5070920;28;20032;-76
2024/01/20 07:17:43;;;;;;;31.90;13.13;;;;;;;-2.20;100.00;102765.50;5070897;28;20021;-77
2024/01/20 07:20:10;;;;;;;26.27;11.52;;;;;;;-2.22;100.00;102767.31;5070672;28;20127;-76
2024/01/20 07:22:36;;;;;;;28.92;11.25;;;;;;;-2.19;100.00;102771.56;5070611;28;20587;-77
2024/01/20 07:25:01;;;;;;;25.73;11.32;;;;;;;-2.18;100.00;102762.81;5070469;28;20040;-77
2024/01/20 07:27:26;;;;;;;31.05;13.38;;;;;;;-2.10;100.00;102776.38;5069351;28;20123;-78
2024/01/20 07:29:52;;;;;;;28.48;12.13;;;;;;;-2.09;100.00;102780.72;5069905;28;20080;-78
2024/01/20 07:32:17;;;;;;;26.85;12.20;;;;;;;-2.07;100.00;102771.88;5069909;28;20028;-77
2024/01/20 07:34:43;;;;;;;29.20;11.40;;;;;;;-2.06;100.00;102776.19;5069653;28;20016;-77
2024/01/20 07:37:08;;;;;;;27.58;12.00;;;;;;;-2.03;100.00;102781.28;5069369;28;20107;-77
2024/01/20 07:39:33;;;;;;;30.52;11.32;;;;;;;-2.01;100.00;102774.22;5069349;28;20132;-77
2024/01/20 07:41:59;;;;;;;31.77;14.20;;;;;;;-1.98;100.00;102776.69;5069117;28;20060;-77
2024/01/20 07:44:24;;;;;;;24.77;11.18;;;;;;;-2.03;100.00;102778.66;5069258;28;20036;-77
2024/01/20 07:46:50;;;;;;;25.10;10.48;;;;;;;-2.04;100.00;102771.75;5069740;28;20032;-77
2024/01/20 07:49:15;;;;;;;27.50;12.75;;;;;;;-2.01;100.00;102782.06;5069830;28;20086;-77
2024/01/20 07:51:41;;;;;;;27.25;12.55;;;;;;;-1.98;100.00;102787.16;5069905;28;20052;-77
2024/01/20 07:54:06;;;;;;;27.77;11.48;;;;;;;-1.96;100.00;102789.72;5069919;28;20078;-77
2024/01/20 07:56:32;;;;;;;29.90;13.48;;;;;;;-1.95;100.00;102790.56;5069931;28;20040;-77
2024/01/20 07:58:57;;;;;;;26.50;12.60;;;;;;;-1.91;100.00;102794.72;5069431;28;20017;-77
2024/01/20 08:01:23;;;;;;;33.42;13.63;;;;;;;-1.91;100.00;102795.59;5069679;28;20036;-77
2024/01/20 08:03:48;;;;;;;25.65;11.55;;;;;;;-1.89;100.00;102809.44;5068443;28;20490;-77
2024/01/20 08:06:13;;;;;;;29.92;14.20;;;;;;;-1.91;100.00;102808.66;5069410;28;20038;-77
2024/01/20 08:08:39;;;;;;;24.88;12.32;;;;;;;-1.88;100.00;102812.91;5068188;28;20028;-77
2024/01/20 08:11:04;;;;;;;25.75;11.90;;;;;;;-1.87;100.00;102797.13;5069329;28;20025;-77
2024/01/20 08:13:30;;;;;;;27.80;11.77;;;;;;;-1.92;100.00;102791.25;5068112;28;20040;-76
2024/01/20 08:15:55;;;;;;;30.60;12.35;;;;;;;-1.84;100.00;102788.31;5069645;28;20031;-76
2024/01/20 08:18:20;;;;;;;31.70;14.18;;;;;;;-1.83;100.00;102795.25;5068368;28;20383;-76
2024/01/20 08:20:46;;;;;;;33.72;14.43;;;;;;;-1.79;100.00;102796.81;5069640;28;20422;-76
2024/01/20 08:23:11;;;;;;;35.80;14.88;;;;;;;-1.82;100.00;102795.16;5069509;28;20035;-76
2024/01/20 08:25:37;;;;;;;28.35;11.88;;;;;;;-1.78;100.00;102803.75;5069672;28;20028;-76
2024/01/20 08:28:02;;;;;;;25.60;13.73;;;;;;;-1.83;100.00;102803.94;5068943;28;21168;-76
2024/01/20 08:30:28;;;;;;;27.25;12.73;;;;;;;-1.80;100.00;102805.56;5069500;28;20039;-76
2024/01/20 08:32:53;;;;;;;25.85;11.63;;;;;;;-1.79;100.00;102808.09;5069513;28;20506;-76
2024/01/20 08:35:19;;;;;;;29.98;14.60;;;;;;;-1.74;100.00;102823.59;5069458;28;20539;-76
2024/01/20 08:37:44;;;;;;;30.10;12.45;;;;;;;-1.74;100.00;102807.91;5069391;28;20368;-76
2024/01/20 08:40:10;;;;;;;29.05;12.85;;;;;;;-1.72;100.00;102813.09;5069258;28;20025;-76
2024/01/20 08:42:35;;;;;;;30.08;13.18;;;;;;;-1.66;100.00;102823.28;5067788;28;20062;-76
2024/01/20 08:45:01;;;;;;;26.38;11.07;;;;;;;-1.63;100.00;102831.81;5069257;28;20033;-76
2024/01/20 08:47:27;;;;;;;27.88;11.80;;;;;;;-1.60;100.00;102828.22;5069192;28;20031;-76
2024/01/20 08:49:53;;;;;;;25.27;12.65;;;;;;;-1.58;100.00;102836.84;5068911;28;20039;-77
2024/01/20 08:52:18;;;;;;;32.88;13.68;;;;;;;-1.60;100.00;102836.06;5069331;28;20032;-77
2024/01/20 08:54:44;;;;;;;26.05;11.35;;;;;;;-1.50;100.00;102831.28;5069018;28;20027;-77
2024/01/20 08:57:09;;;;;;;30.48;12.20;;;;;;;-1.53;100.00;102821.78;5067617;28;20036;-77
2024/01/20 08:59:35;;;;;;;27.27;12.27;;;;;;;-1.49;100.00;102833.84;5067254;28;20028;-79
2024/01/20 09:02:00;;;;;;;22.95;12.73;;;;;;;-1.41;100.00;102831.72;5065632;28;20399;-77
2024/01/20 09:04:25;;;;;;;24.42;10.85;;;;;;;-1.38;100.00;102834.19;5067227;28;20055;-77
2024/01/20 09:06:51;;;;;;;30.42;13.88;;;;;;;-1.38;100.00;102835.97;5067293;28;20158;-79
2024/01/20 09:09:17;;;;;;;33.58;12.13;;;;;;;-1.30;100.00;102848.72;5065448;28;20055;-77
2024/01/20 09:11:43;;;;;;;26.98;11.32;;;;;;;-1.34;100.00;102832.28;5067125;28;20437;-77
2024/01/20 09:14:09;;;;;;;32.80;13.02;;;;;;;-1.26;100.00;102834.53;5067349;28;20107;-77
2024/01/20 09:16:34;;;;;;;29.10;13.50;;;;;;;-1.16;100.00;102841.06;5065799;28;20138;-77
2024/01/20 09:18:59;;;;;;;27.40;12.90;;;;;;;-1.17;100.00;102842.81;5066474;28;20028;-78
2024/01/20 09:21:25;;;;;;;26.85;10.52;;;;;;;-1.26;100.00;102840.63;5067112;28;20036;-77
2024/01/20 09:23:53;;;;;;;25.60;11.20;;;;;;;-1.29;100.00;102846.00;5048944;28;20094;-76
2024/01/20 09:26:18;;;;;;;25.35;12.82;;;;;;;-1.26;100.00;102861.56;5067563;28;20029;-76
2024/01/20 09:28:44;;;;;;;27.25;11.75;;;;;;;-1.28;100.00;102854.69;5068710;28;20044;-76
2024/01/20 09:31:09;;;;;;;30.33;13.38;;;;;;;-1.36;100.00;102848.06;5070417;28;20036;-77
2024/01/20 09:33:34;;;;;;;25.83;12.23;;;;;;;-1.37;100.00;102842.88;5070709;28;20040;-77
2024/01/20 09:36:02;;;;;;;28.85;12.65;;;;;;;-1.30;100.00;102840.84;5070314;28;20069;-77
2024/01/20 09:38:28;;;;;;;27.83;12.75;;;;;;;-1.23;100.00;102852.72;5070362;28;20036;-77
2024/01/20 09:40:57;;;;;;;27.60;13.93;;;;;;;-1.16;100.00;102862.00;5069972;28;20040;-78
2024/01/20 09:43:22;;;;;;;28.40;12.02;;;;;;;-1.14;100.00;102858.38;5070454;28;20043;-76
2024/01/20 09:45:48;;;;;;;28.58;12.68;;;;;;;-1.14;100.00;102852.31;5070301;28;20450;-77
2024/01/20 09:48:13;;;;;;;27.67;13.65;;;;;;;-1.09;100.00;102847.72;5070818;28;20475;-77
2024/01/20 09:50:39;;;;;;;26.65;12.18;;;;;;;-1.03;100.00;102863.13;5072201;28;20119;-77
2024/01/20 09:53:14;;;;;;;27.25;11.85;;;;;;;-1.01;100.00;102865.69;5072295;28;20491;-77
2024/01/20 09:55:41;;;;;;;32.60;13.35;;;;;;;-0.97;100.00;102869.84;5071613;28;20032;-76
2024/01/20 09:58:08;;;;;;;25.83;11.40;;;;;;;-0.99;100.00;102869.94;5072110;28;20028;-76
2024/01/20 10:00:34;;;;;;;27.10;12.45;;;;;;;-0.98;100.00;102876.00;5071958;28;20127;-76
2024/01/20 10:03:03;;;;;;;30.60;12.57;;;;;;;-0.99;100.00;102869.09;5072164;28;20546;-76
2024/01/20 10:05:31;;;;;;;26.17;10.38;;;;;;;-1.01;100.00;102876.16;5071797;28;20046;-76
2024/01/20 10:07:57;;;;;;;25.42;10.93;;;;;;;-1.00;100.00;102873.44;5071400;28;20029;-76
2024/01/20 10:10:22;;;;;;;26.92;10.88;;;;;;;-0.95;100.00;102881.94;5070470;28;20615;-76
2024/01/20 10:12:52;;;;;;;31.48;12.27;;;;;;;-0.95;100.00;102878.47;5071872;28;20043;-78
2024/01/20 10:15:21;;;;;;;26.02;11.68;;;;;;;-0.93;100.00;102869.63;5071893;28;20187;-76
2024/01/20 10:17:47;;;;;;;30.23;14.20;;;;;;;-0.93;100.00;102855.69;5071840;28;20036;-77
2024/01/20 10:20:24;;;;;;;27.17;12.00;;;;;;;-0.79;100.00;102868.97;5071497;28;20029;-77
2024/01/20 10:22:50;;;;;;;33.10;14.38;;;;;;;-0.81;100.00;102860.38;5053903;28;20029;-77
2024/01/20 10:25:19;;;;;;;33.97;15.38;;;;;;;-0.75;100.00;102864.47;5070450;28;20039;-77
2024/01/20 10:27:48;;;;;;;30.42;15.40;;;;;;;-0.72;100.00;102875.63;5071044;28;20029;-77
2024/01/20 10:30:18;;;;;;;33.92;16.95;;;;;;;-0.66;100.00;102879.72;5071225;28;20473;-77
2024/01/20 10:32:47;;;;;;;33.60;13.43;;;;;;;-0.56;100.00;102882.75;5070749;28;20024;-77
2024/01/20 10:35:13;;;;;;;31.73;14.60;;;;;;;-0.51;100.00;102886.84;5071675;28;20529;-77
2024/01/20 10:37:40;;;;;;;28.50;12.93;;;;;;;-0.58;100.00;102876.75;5070925;28;20032;-77
2024/01/20 10:40:10;;;;;;;26.15;12.95;;;;;;;-0.57;100.00;102891.56;5070190;28;20028;-76
2024/01/20 10:42:41;;;;;;;30.88;13.32;;;;;;;-0.61;100.00;102882.13;5071016;28;20024;-76
2024/01/20 10:45:15;;;;;;;30.17;15.70;;;;;;;-0.67;100.00;102872.78;5071196;28;20030;-76
2024/01/20 10:47:44;;;;;;;30.50;11.93;;;;;;;-0.64;100.00;102875.25;5071072;28;20437;-76
2024/01/20 10:50:10;;;;;;;38.35;14.93;;;;;;;-0.62;100.00;102873.44;5071394;28;20035;-77
2024/01/20 10:52:36;;;;;;;29.55;12.45;;;;;;;-0.54;100.00;102879.16;5071020;28;20119;-78
2024/01/20 10:55:03;;;;;;;35.60;15.35;;;;;;;-0.57;100.00;102867.97;5069648;28;20028;-77